Time;durP1;ratioP1;P1;durP2;ratioP2;P2;SDS_P1;SDS_P2;PMS_P1;PMS_P2;Temp;Humidity;BMP_temperature;BMP_pressure;BME280_temperature;BME280_humidity;BME280_pressure;Samples;Min_cycle;Max_cycle;Signal;HPM_P1;HPM_P2
2021/08/24 00:00:49;;;;;;;;;;;;;;;15.59;84.73;99780.56;5031772;28;935;-60
2021/08/24 00:03:16;;;;;;;;;;;;;;;15.55;84.62;99781.88;5031482;28;889;-60
2021/08/24 00:05:44;;;;;;;;;;;;;;;15.54;85.02;99781.09;5031859;28;825;-60
2021/08/24 00:08:11;;;;;;;;;;;;;;;15.60;84.92;99784.16;5034393;28;1955;-60
2021/08/24 00:10:44;;;;;;;;;;;;;;;15.60;84.61;99776.56;5035465;28;896;-60
2021/08/24 00:13:11;;;;;;;;;;;;;;;15.59;84.57;99775.00;5035272;28;857;-60
2021/08/24 00:15:37;;;;;;;;;;;;;;;15.60;84.59;99767.44;5034970;28;1306;-60
2021/08/24 00:18:04;;;;;;;;;;;;;;;15.57;84.36;99766.28;5033911;28;874;-60
2021/08/24 00:20:31;;;;;;;;;;;;;;;15.55;84.19;99762.38;5035125;28;1000;-60
2021/08/24 00:23:01;;;;;;;;;;;;;;;15.51;84.01;99766.06;5035100;28;874;-60
2021/08/24 00:25:27;;;;;;;;;;;;;;;15.42;83.99;99765.88;5034862;28;807;-60
2021/08/24 00:27:53;;;;;;;;;;;;;;;15.36;83.93;99755.69;5034794;28;2007;-59
2021/08/24 00:30:20;;;;;;;;;;;;;;;15.29;83.82;99757.44;5034845;28;905;-60
2021/08/24 00:32:47;;;;;;;;;;;;;;;15.24;83.88;99760.75;5034852;28;913;-60
2021/08/24 00:35:13;;;;;;;;;;;;;;;15.18;83.92;99753.38;5034797;28;866;-60
2021/08/24 00:37:40;;;;;;;;;;;;;;;15.11;83.90;99752.31;5034798;28;874;-59
2021/08/24 00:40:07;;;;;;;;;;;;;;;15.05;83.92;99754.06;5034856;28;854;-59
2021/08/24 00:42:35;;;;;;;;;;;;;;;15.02;83.91;99749.38;5034680;28;881;-60
2021/08/24 00:45:02;;;;;;;;;;;;;;;14.98;83.94;99750.66;5034600;28;803;-60
2021/08/24 00:47:28;;;;;;;;;;;;;;;14.94;84.04;99747.19;5034607;28;862;-60
2021/08/24 00:50:01;;;;;;;;;;;;;;;14.90;84.02;99747.28;5034540;28;1885;-60
2021/08/24 00:52:27;;;;;;;;;;;;;;;14.86;84.10;99750.13;5034471;28;869;-59
2021/08/24 00:54:55;;;;;;;;;;;;;;;14.80;84.00;99746.28;5033134;28;1435;-60
2021/08/24 00:57:23;;;;;;;;;;;;;;;14.79;84.16;99750.31;5034581;28;901;-60
2021/08/24 00:59:50;;;;;;;;;;;;;;;14.75;84.00;99744.03;5034386;28;811;-60
2021/08/24 01:02:18;;;;;;;;;;;;;;;14.73;84.17;99742.91;5034302;28;857;-59
2021/08/24 01:04:45;;;;;;;;;;;;;;;14.68;84.19;99738.63;5034245;28;864;-59
2021/08/24 01:07:24;;;;;;;;;;;;;;;14.65;84.10;99740.25;5034201;28;897;-60
2021/08/24 01:09:54;;;;;;;;;;;;;;;14.62;83.94;99737.59;5034082;28;1882;-60
2021/08/24 01:12:39;;;;;;;;;;;;;;;14.60;83.99;99743.56;5034063;28;787;-60
2021/08/24 01:15:06;;;;;;;;;;;;;;;14.55;83.79;99738.53;5034381;28;899;-59
2021/08/24 01:17:37;;;;;;;;;;;;;;;14.53;83.88;99734.56;5033836;28;1238;-59
2021/08/24 01:20:22;;;;;;;;;;;;;;;14.48;83.55;99731.06;5032971;28;862;-59
2021/08/24 01:23:07;;;;;;;;;;;;;;;14.40;83.60;99726.09;5033969;28;906;-59
2021/08/24 01:25:52;;;;;;;;;;;;;;;14.37;83.60;99727.75;5033893;28;819;-59
2021/08/24 01:28:28;;;;;;;;;;;;;;;14.39;83.50;99721.78;5034386;28;1909;-59
2021/08/24 01:31:17;;;;;;;;;;;;;;;14.39;83.64;99719.00;5033753;28;810;-59
2021/08/24 01:34:02;;;;;;;;;;;;;;;14.38;83.45;99720.19;5033751;28;823;-60
2021/08/24 01:36:34;;;;;;;;;;;;;;;14.36;83.58;99719.84;5033664;28;909;-59
2021/08/24 01:39:10;;;;;;;;;;;;;;;14.33;83.45;99724.25;5033583;28;807;-59
2021/08/24 01:41:49;;;;;;;;;;;;;;;14.30;83.48;99728.69;5034251;28;826;-60
2021/08/24 01:44:22;;;;;;;;;;;;;;;14.32;83.50;99719.13;5033578;28;858;-59
2021/08/24 01:47:12;;;;;;;;;;;;;;;14.29;83.47;99709.66;5033345;28;1952;-59
2021/08/24 01:49:56;;;;;;;;;;;;;;;14.32;83.40;99713.56;5033403;28;1881;-59
2021/08/24 01:52:28;;;;;;;;;;;;;;;14.33;83.13;99707.59;5033334;28;806;-60
2021/08/24 01:54:59;;;;;;;;;;;;;;;14.31;82.84;99707.22;5034039;28;774;-60
2021/08/24 01:57:31;;;;;;;;;;;;;;;14.31;82.73;99707.22;5033294;28;1046;-59
2021/08/24 02:00:05;;;;;;;;;;;;;;;14.28;82.86;99706.09;5033191;28;940;-59
2021/08/24 02:02:34;;;;;;;;;;;;;;;14.25;82.55;99700.59;5033131;28;799;-59
2021/08/24 02:05:12;;;;;;;;;;;;;;;14.22;82.79;99699.47;5033109;28;834;-59
2021/08/24 02:07:39;;;;;;;;;;;;;;;14.25;82.85;99695.84;5033153;28;862;-59
2021/08/24 02:10:10;;;;;;;;;;;;;;;14.25;82.81;99698.63;5033117;28;1945;-60
2021/08/24 02:12:39;;;;;;;;;;;;;;;14.25;82.84;99695.03;5032989;28;1201;-59
2021/08/24 02:15:06;;;;;;;;;;;;;;;14.24;83.04;99694.25;5033035;28;897;-60
2021/08/24 02:17:33;;;;;;;;;;;;;;;14.26;83.36;99696.63;5032624;28;1358;-59
2021/08/24 02:20:06;;;;;;;;;;;;;;;14.29;83.30;99692.97;5032980;28;854;-59
2021/08/24 02:22:35;;;;;;;;;;;;;;;14.28;83.13;99697.75;5032795;28;815;-59
2021/08/24 02:25:07;;;;;;;;;;;;;;;14.28;82.93;99696.97;5032933;28;806;-59
2021/08/24 02:27:37;;;;;;;;;;;;;;;14.25;82.71;99686.69;5032710;28;866;-59
2021/08/24 02:30:04;;;;;;;;;;;;;;;14.24;82.83;99691.50;5032517;28;1914;-59
2021/08/24 02:32:36;;;;;;;;;;;;;;;14.28;82.79;99688.63;5032593;28;882;-59
2021/08/24 02:35:14;;;;;;;;;;;;;;;14.30;82.47;99683.44;5032523;28;934;-59
2021/08/24 02:37:59;;;;;;;;;;;;;;;14.26;82.72;99677.16;5032553;28;874;-59
2021/08/24 02:40:35;;;;;;;;;;;;;;;14.13;82.47;99685.38;5032738;28;826;-59
2021/08/24 02:43:02;;;;;;;;;;;;;;;14.05;82.82;99678.41;5032426;28;799;-59
2021/08/24 02:45:43;;;;;;;;;;;;;;;14.01;83.21;99681.25;5032390;28;854;-59
2021/08/24 02:48:11;;;;;;;;;;;;;;;13.99;83.36;99686.44;5032241;28;1973;-59
2021/08/24 02:50:40;;;;;;;;;;;;;;;13.97;83.71;99682.53;5032328;28;850;-59
2021/08/24 02:53:06;;;;;;;;;;;;;;;13.95;83.58;99682.19;5032193;28;838;-59
2021/08/24 02:55:33;;;;;;;;;;;;;;;13.97;83.53;99688.09;5032170;28;893;-59
2021/08/24 02:57:59;;;;;;;;;;;;;;;13.99;83.59;99683.66;5032041;28;923;-59
2021/08/24 03:00:26;;;;;;;;;;;;;;;13.96;83.33;99681.75;5032218;28;838;-59
2021/08/24 03:02:53;;;;;;;;;;;;;;;13.93;83.25;99676.28;5032113;28;795;-59
2021/08/24 03:05:19;;;;;;;;;;;;;;;13.90;83.10;99677.91;5032049;28;815;-59
2021/08/24 03:07:46;;;;;;;;;;;;;;;13.86;82.94;99677.19;5032080;28;898;-59
2021/08/24 03:10:13;;;;;;;;;;;;;;;13.85;82.98;99681.97;5031886;28;1941;-59
2021/08/24 03:13:16;;;;;;;;;;;;;;;13.87;82.91;99684.34;5032202;28;807;-59
2021/08/24 03:15:55;;;;;;;;;;;;;;;13.88;82.58;99688.69;4970612;28;1429;-59
2021/08/24 03:18:27;;;;;;;;;;;;;;;13.85;82.47;99686.75;4970991;28;1135;-59
2021/08/24 03:20:57;;;;;;;;;;;;;;;13.86;82.31;99688.31;4970977;28;839;-59
2021/08/24 03:23:26;;;;;;;;;;;;;;;13.88;82.01;99695.00;4970824;28;929;-59
2021/08/24 03:25:53;;;;;;;;;;;;;;;13.93;81.79;99696.50;4970873;28;831;-59
2021/08/24 03:28:21;;;;;;;;;;;;;;;13.95;81.67;99696.84;4970719;28;1919;-59
2021/08/24 03:30:47;;;;;;;;;;;;;;;13.97;81.80;99694.44;4971072;28;1298;-59
2021/08/24 03:33:14;;;;;;;;;;;;;;;14.01;81.81;99697.16;4970833;28;835;-59
2021/08/24 03:35:40;;;;;;;;;;;;;;;14.04;81.85;99691.53;4970741;28;1050;-59
2021/08/24 03:38:07;;;;;;;;;;;;;;;14.05;81.66;99695.84;4970753;28;847;-59
2021/08/24 03:40:33;;;;;;;;;;;;;;;14.07;81.71;99698.22;4970799;28;815;-59
2021/08/24 03:43:00;;;;;;;;;;;;;;;14.11;81.35;99693.38;4970134;28;858;-59
2021/08/24 03:45:27;;;;;;;;;;;;;;;14.13;81.23;99696.50;4970765;28;851;-59
2021/08/24 03:47:54;;;;;;;;;;;;;;;14.19;80.99;99700.34;4970694;28;827;-59
2021/08/24 03:50:21;;;;;;;;;;;;;;;14.26;80.56;99705.75;5018758;28;1886;-59
2021/08/24 03:52:47;;;;;;;;;;;;;;;14.35;80.40;99704.38;5031329;28;904;-60
2021/08/24 03:55:14;;;;;;;;;;;;;;;14.42;79.88;99707.78;5031392;28;834;-59
2021/08/24 03:57:41;;;;;;;;;;;;;;;14.49;79.39;99698.50;5031395;28;802;-59
2021/08/24 04:00:08;;;;;;;;;;;;;;;14.55;79.05;99699.59;5031374;28;779;-59
2021/08/24 04:02:34;;;;;;;;;;;;;;;14.64;78.59;99704.56;5031357;28;815;-59
2021/08/24 04:05:02;;;;;;;;;;;;;;;14.74;78.33;99703.50;5031269;28;827;-59
2021/08/24 04:07:32;;;;;;;;;;;;;;;14.89;77.74;99706.72;5031351;28;815;-59
2021/08/24 04:09:59;;;;;;;;;;;;;;;15.00;77.71;99701.72;5029868;28;1913;-59
2021/08/24 04:12:24;;;;;;;;;;;;;;;15.13;77.37;99703.78;5031304;28;873;-59
2021/08/24 04:14:51;;;;;;;;;;;;;;;15.21;77.30;99705.97;5031269;28;986;-60
2021/08/24 04:17:18;;;;;;;;;;;;;;;15.29;77.14;99707.31;5031051;28;1265;-59
2021/08/24 04:19:44;;;;;;;;;;;;;;;15.36;77.01;99711.91;5031190;28;835;-59
2021/08/24 04:22:16;;;;;;;;;;;;;;;15.46;77.11;99710.09;5031149;28;929;-59
2021/08/24 04:24:42;;;;;;;;;;;;;;;15.54;76.39;99711.47;5031456;28;847;-59
2021/08/24 04:27:09;;;;;;;;;;;;;;;15.65;76.12;99711.19;5031427;28;791;-59
2021/08/24 04:29:36;;;;;;;;;;;;;;;15.75;75.67;99714.94;5031043;28;1910;-59
2021/08/24 04:32:07;;;;;;;;;;;;;;;15.82;75.65;99709.94;5031219;28;877;-60
2021/08/24 04:34:34;;;;;;;;;;;;;;;15.90;75.44;99710.53;5031342;28;858;-59
2021/08/24 04:37:01;;;;;;;;;;;;;;;16.00;74.97;99695.50;5031095;28;885;-59
2021/08/24 04:39:28;;;;;;;;;;;;;;;16.12;74.48;99714.25;5031314;28;881;-59
2021/08/24 04:41:54;;;;;;;;;;;;;;;16.26;74.30;99709.50;5031000;28;811;-59
2021/08/24 04:44:20;;;;;;;;;;;;;;;16.40;74.14;99697.88;5031239;28;819;-60
2021/08/24 04:46:47;;;;;;;;;;;;;;;16.55;74.18;99703.81;5031240;28;831;-59
2021/08/24 04:49:13;;;;;;;;;;;;;;;16.68;74.20;99707.38;5031123;28;1953;-60
2021/08/24 04:51:40;;;;;;;;;;;;;;;16.82;74.06;99708.22;5031278;28;790;-60
2021/08/24 04:54:06;;;;;;;;;;;;;;;16.89;73.79;99711.53;5032431;28;834;-60
2021/08/24 04:56:33;;;;;;;;;;;;;;;17.00;73.61;99704.81;5034367;28;811;-59
2021/08/24 04:58:59;;;;;;;;;;;;;;;17.12;73.21;99698.44;5034374;28;822;-60
2021/08/24 05:01:26;;;;;;;;;;;;;;;17.23;72.62;99700.88;5034318;28;830;-60
2021/08/24 05:03:53;;;;;;;;;;;;;;;17.34;72.05;99692.91;5034311;28;819;-59
2021/08/24 05:06:19;;;;;;;;;;;;;;;17.48;71.19;99692.41;5034207;28;816;-60
2021/08/24 05:08:46;;;;;;;;;;;;;;;17.61;70.17;99699.97;5034115;28;1954;-59
2021/08/24 05:16:22;;;;;;;;;;;;;;;18.31;67.29;99693.00;5357396;22;1525;-60
2021/08/24 05:18:49;;;;;;;;;;;;;;;18.55;66.42;99701.66;5034082;28;834;-60
2021/08/24 05:21:15;;;;;;;;;;;;;;;18.80;64.84;99701.94;5034143;28;841;-60
2021/08/24 05:23:42;;;;;;;;;;;;;;;19.03;64.53;99700.63;5034031;28;786;-60
2021/08/24 05:26:15;;;;;;;;;;;;;;;19.73;63.52;99701.63;5034071;28;845;-60
2021/08/24 05:28:42;;;;;;;;;;;;;;;20.59;60.14;99699.78;5033878;28;1910;-60
2021/08/24 05:31:08;;;;;;;;;;;;;;;21.11;58.02;99708.88;5033724;28;849;-59
2021/08/24 05:33:35;;;;;;;;;;;;;;;21.10;57.79;99704.50;5033985;28;810;-60
2021/08/24 05:36:02;;;;;;;;;;;;;;;20.98;58.28;99706.28;5033722;28;886;-60
2021/08/24 05:38:30;;;;;;;;;;;;;;;21.05;58.82;99707.19;5033643;28;850;-60
2021/08/24 05:40:56;;;;;;;;;;;;;;;21.25;58.97;99704.56;5033622;28;889;-60
2021/08/24 05:43:26;;;;;;;;;;;;;;;21.50;58.16;99703.31;5033542;28;885;-60
2021/08/24 05:46:03;;;;;;;;;;;;;;;22.10;57.19;99701.34;5033403;28;822;-60
2021/08/24 05:48:30;;;;;;;;;;;;;;;23.07;54.47;99700.88;5033433;28;1886;-60
2021/08/24 05:50:57;;;;;;;;;;;;;;;23.96;52.00;99708.88;5033425;28;803;-60
2021/08/24 05:53:24;;;;;;;;;;;;;;;24.80;49.60;99714.50;5033366;28;870;-60
2021/08/24 05:55:51;;;;;;;;;;;;;;;25.34;48.16;99710.97;5033370;28;854;-60
2021/08/24 05:58:18;;;;;;;;;;;;;;;25.55;47.99;99706.69;5033292;28;846;-60
2021/08/24 06:00:48;;;;;;;;;;;;;;;25.49;48.19;99713.59;5033565;28;1098;-60
2021/08/24 06:03:15;;;;;;;;;;;;;;;25.33;48.92;99721.53;5033447;28;881;-60
2021/08/24 06:05:42;;;;;;;;;;;;;;;25.27;48.83;99729.19;5033003;28;814;-60
2021/08/24 06:08:09;;;;;;;;;;;;;;;25.40;47.83;99725.91;5033144;28;1886;-60
2021/08/24 06:10:37;;;;;;;;;;;;;;;25.82;46.89;99718.63;5033288;28;822;-60
2021/08/24 06:13:05;;;;;;;;;;;;;;;26.80;44.81;99722.59;5032961;28;915;-60
2021/08/24 06:15:32;;;;;;;;;;;;;;;27.81;42.72;99727.16;5032729;28;1217;-60
2021/08/24 06:17:58;;;;;;;;;;;;;;;28.61;40.70;99721.72;5032854;28;937;-60
2021/08/24 06:20:24;;;;;;;;;;;;;;;29.39;39.59;99717.31;5032912;28;869;-61
2021/08/24 06:22:50;;;;;;;;;;;;;;;29.95;38.40;99717.91;5032900;28;846;-61
2021/08/24 06:25:17;;;;;;;;;;;;;;;30.31;36.89;99716.31;5033096;28;786;-61
2021/08/24 06:27:44;;;;;;;;;;;;;;;30.52;36.11;99715.72;5033267;28;850;-61
2021/08/24 06:30:11;;;;;;;;;;;;;;;30.63;35.33;99720.47;5033026;28;1967;-60
2021/08/24 06:32:41;;;;;;;;;;;;;;;30.77;34.80;99710.63;5033242;28;818;-61
2021/08/24 06:35:08;;;;;;;;;;;;;;;31.01;35.08;99706.84;5032601;28;839;-61
2021/08/24 06:37:35;;;;;;;;;;;;;;;31.47;34.44;99707.50;5032482;28;925;-60
2021/08/24 06:40:02;;;;;;;;;;;;;;;31.73;34.49;99718.09;5032711;28;898;-61
2021/08/24 06:42:29;;;;;;;;;;;;;;;31.69;35.62;99711.19;5032535;28;861;-61
2021/08/24 06:44:55;;;;;;;;;;;;;;;31.93;35.61;99712.97;5032372;28;904;-61
2021/08/24 06:47:22;;;;;;;;;;;;;;;32.63;34.48;99714.47;5032397;28;874;-61
2021/08/24 06:49:49;;;;;;;;;;;;;;;32.97;34.04;99714.34;5032307;28;1909;-62
2021/08/24 06:52:16;;;;;;;;;;;;;;;33.13;34.20;99715.22;5032390;28;856;-61
2021/08/24 06:54:41;;;;;;;;;;;;;;;33.13;34.83;99715.97;5032568;28;838;-61
2021/08/24 06:57:08;;;;;;;;;;;;;;;33.02;34.76;99707.69;5032479;28;790;-61
2021/08/24 06:59:38;;;;;;;;;;;;;;;33.03;34.55;99709.22;5032756;28;900;-61
2021/08/24 07:02:07;;;;;;;;;;;;;;;32.99;34.50;99716.63;5032188;28;909;-61
2021/08/24 07:04:34;;;;;;;;;;;;;;;32.83;34.57;99715.75;5032178;28;1059;-61
2021/08/24 07:07:01;;;;;;;;;;;;;;;32.76;34.90;99705.78;5032035;28;811;-62
2021/08/24 07:09:27;;;;;;;;;;;;;;;32.68;34.68;99708.59;5032246;28;1889;-61
2021/08/24 07:11:54;;;;;;;;;;;;;;;32.85;34.62;99708.13;5032085;28;924;-62
2021/08/24 07:14:21;;;;;;;;;;;;;;;33.27;33.99;99713.78;5031818;28;850;-62
2021/08/24 07:16:48;;;;;;;;;;;;;;;33.92;33.34;99705.06;5031118;28;1200;-62
2021/08/24 07:19:14;;;;;;;;;;;;;;;34.03;33.02;99711.78;5031922;28;801;-61
2021/08/24 07:21:41;;;;;;;;;;;;;;;33.85;33.10;99708.69;5031828;28;889;-61
2021/08/24 07:24:07;;;;;;;;;;;;;;;33.61;33.10;99712.03;5031858;28;845;-61
2021/08/24 07:26:34;;;;;;;;;;;;;;;33.33;33.54;99710.75;5031823;28;889;-61
2021/08/24 07:29:00;;;;;;;;;;;;;;;33.20;33.95;99705.91;5031710;28;1975;-61
2021/08/24 07:31:28;;;;;;;;;;;;;;;33.41;33.86;99705.81;5031722;28;837;-61
2021/08/24 07:33:55;;;;;;;;;;;;;;;33.65;33.29;99695.25;5031841;28;870;-61
2021/08/24 07:36:21;;;;;;;;;;;;;;;33.81;32.90;99693.97;5031622;28;864;-61
2021/08/24 07:38:48;;;;;;;;;;;;;;;34.14;32.86;99695.03;5031722;28;901;-61
2021/08/24 07:41:15;;;;;;;;;;;;;;;34.42;32.03;99698.28;5031681;28;810;-61
2021/08/24 07:43:42;;;;;;;;;;;;;;;34.47;32.22;99697.34;5031721;28;814;-61
2021/08/24 07:46:07;;;;;;;;;;;;;;;34.34;32.09;99699.06;5031754;28;819;-61
2021/08/24 07:48:34;;;;;;;;;;;;;;;33.96;32.25;99694.00;5031964;28;1882;-61
2021/08/24 07:51:01;;;;;;;;;;;;;;;33.70;32.90;99695.09;5030620;28;1267;-61
2021/08/24 07:53:28;;;;;;;;;;;;;;;34.17;32.59;99693.13;5031857;28;885;-61
2021/08/24 07:55:55;;;;;;;;;;;;;;;34.57;31.64;99698.31;5030238;28;884;-61
2021/08/24 07:58:21;;;;;;;;;;;;;;;34.54;31.49;99691.59;5031460;28;819;-61
2021/08/24 08:00:48;;;;;;;;;;;;;;;34.21;31.62;99696.38;5031327;28;881;-62
2021/08/24 08:03:15;;;;;;;;;;;;;;;33.93;32.19;99691.53;5031334;28;838;-62
2021/08/24 08:05:42;;;;;;;;;;;;;;;34.36;31.93;99696.38;5031326;28;843;-62
2021/08/24 08:08:09;;;;;;;;;;;;;;;34.37;31.61;99688.53;5031221;28;2304;-62
2021/08/24 08:10:37;;;;;;;;;;;;;;;34.34;30.97;99695.44;5031330;28;929;-62
2021/08/24 08:13:03;;;;;;;;;;;;;;;34.27;30.99;99691.22;5031925;28;834;-62
2021/08/24 08:15:33;;;;;;;;;;;;;;;34.44;30.72;99689.88;5031279;28;1298;-61
2021/08/24 08:18:00;;;;;;;;;;;;;;;34.69;30.61;99681.47;5031535;28;877;-62
2021/08/24 08:20:27;;;;;;;;;;;;;;;34.88;29.42;99681.06;5031325;28;890;-61
2021/08/24 08:22:54;;;;;;;;;;;;;;;34.74;28.87;99674.78;5031412;28;822;-61
2021/08/24 08:25:20;;;;;;;;;;;;;;;34.13;29.15;99675.53;5031508;28;842;-61
2021/08/24 08:27:46;;;;;;;;;;;;;;;33.85;30.26;99682.13;5032011;28;826;-61
2021/08/24 08:30:12;;;;;;;;;;;;;;;33.91;30.01;99677.00;5033944;28;1913;-62
2021/08/24 08:32:40;;;;;;;;;;;;;;;34.03;29.65;99669.53;5035121;28;949;-62
2021/08/24 08:35:07;;;;;;;;;;;;;;;34.27;29.01;99668.28;5034915;28;877;-62
2021/08/24 08:37:34;;;;;;;;;;;;;;;34.34;28.83;99670.38;5035690;28;838;-61
2021/08/24 08:40:01;;;;;;;;;;;;;;;34.46;28.56;99672.84;5034887;28;978;-62
2021/08/24 08:42:37;;;;;;;;;;;;;;;34.18;29.55;99674.56;5035222;28;826;-62
2021/08/24 08:45:17;;;;;;;;;;;;;;;33.96;29.87;99671.06;5034706;28;842;-62
2021/08/24 08:48:02;;;;;;;;;;;;;;;34.10;29.61;99671.66;5034854;28;811;-62
2021/08/24 08:50:35;;;;;;;;;;;;;;;34.21;29.37;99664.06;5033188;28;1886;-62
2021/08/24 08:53:06;;;;;;;;;;;;;;;34.22;29.67;99656.97;5034470;28;957;-61
2021/08/24 08:55:43;;;;;;;;;;;;;;;34.23;29.08;99664.25;5034555;28;830;-62
2021/08/24 08:58:10;;;;;;;;;;;;;;;34.17;29.05;99664.44;5034376;28;807;-61
2021/08/24 09:00:42;;;;;;;;;;;;;;;34.11;28.53;99661.72;5034486;28;799;-62
2021/08/24 09:03:16;;;;;;;;;;;;;;;33.81;29.08;99653.09;5034368;28;961;-62
2021/08/24 09:05:43;;;;;;;;;;;;;;;33.60;29.56;99645.38;5034282;28;790;-62
2021/08/24 09:08:10;;;;;;;;;;;;;;;33.70;29.13;99643.50;5034225;28;1953;-63
2021/08/24 09:10:46;;;;;;;;;;;;;;;32.95;30.51;99642.56;5034184;28;818;-62
2021/08/24 09:13:21;;;;;;;;;;;;;;;32.65;30.80;99640.28;5034108;28;802;-62
2021/08/24 09:15:53;;;;;;;;;;;;;;;32.83;31.65;99647.06;5034084;28;1385;-62
2021/08/24 09:18:30;;;;;;;;;;;;;;;33.04;30.18;99642.03;5034093;28;861;-62
2021/08/24 09:21:00;;;;;;;;;;;;;;;32.82;30.14;99629.16;5034122;28;892;-62
2021/08/24 09:23:30;;;;;;;;;;;;;;;32.85;29.99;99625.16;5034095;28;810;-62
2021/08/24 09:26:12;;;;;;;;;;;;;;;32.84;30.37;99631.44;5034017;28;873;-61
2021/08/24 09:28:39;;;;;;;;;;;;;;;32.97;30.40;99622.75;5033741;28;1910;-62
2021/08/24 09:31:10;;;;;;;;;;;;;;;33.04;31.01;99627.72;5034431;28;770;-62
2021/08/24 09:33:36;;;;;;;;;;;;;;;32.89;31.44;99622.69;5033818;28;849;-62
2021/08/24 09:36:03;;;;;;;;;;;;;;;33.07;31.38;99629.47;5033904;28;861;-62
2021/08/24 09:38:31;;;;;;;;;;;;;;;32.75;30.93;99615.53;5033983;28;802;-62
2021/08/24 09:40:57;;;;;;;;;;;;;;;32.87;31.45;99621.72;5032781;28;830;-61
2021/08/24 09:43:29;;;;;;;;;;;;;;;33.16;31.18;99619.63;5033805;28;873;-62
2021/08/24 09:45:58;;;;;;;;;;;;;;;33.25;31.13;99618.31;5032356;28;823;-61
2021/08/24 09:48:25;;;;;;;;;;;;;;;33.57;31.04;99614.97;5033565;28;1899;-61
2021/08/24 09:50:52;;;;;;;;;;;;;;;33.66;30.04;99617.31;5033469;28;862;-61
2021/08/24 09:53:35;;;;;;;;;;;;;;;33.53;30.21;99623.19;5033543;28;873;-62
2021/08/24 09:56:04;;;;;;;;;;;;;;;33.01;30.99;99610.91;5033394;28;841;-62
2021/08/24 09:58:35;;;;;;;;;;;;;;;32.92;31.68;99618.72;5033240;28;942;-61
2021/08/24 10:01:03;;;;;;;;;;;;;;;33.13;31.36;99615.00;5033372;28;827;-62
2021/08/24 10:03:35;;;;;;;;;;;;;;;33.32;30.51;99604.00;5033500;28;811;-62
2021/08/24 10:06:20;;;;;;;;;;;;;;;33.43;29.99;99607.88;5033234;28;861;-62
2021/08/24 10:08:47;;;;;;;;;;;;;;;33.51;29.52;99602.94;5033054;28;1910;-61
2021/08/24 10:11:14;;;;;;;;;;;;;;;33.64;29.97;99602.03;5032967;28;904;-62
2021/08/24 10:13:43;;;;;;;;;;;;;;;34.23;29.60;99593.31;5033040;28;862;-62
2021/08/24 10:16:24;;;;;;;;;;;;;;;34.41;28.74;99602.09;5032915;28;1359;-62
2021/08/24 10:19:14;;;;;;;;;;;;;;;33.73;29.82;99599.38;5032952;28;857;-62
2021/08/24 10:21:43;;;;;;;;;;;;;;;34.07;29.66;99606.09;5025191;28;1519;-62
2021/08/24 10:24:12;;;;;;;;;;;;;;;34.44;29.28;99598.06;5032875;28;854;-62
2021/08/24 10:26:40;;;;;;;;;;;;;;;34.30;28.72;99597.53;5032696;28;783;-62
2021/08/24 10:29:11;;;;;;;;;;;;;;;34.31;30.18;99596.97;5032723;28;2373;-63
2021/08/24 10:32:04;;;;;;;;;;;;;;;34.38;29.04;99600.41;5032641;28;815;-62
2021/08/24 10:34:37;;;;;;;;;;;;;;;34.38;31.42;99592.56;5029994;28;1159;-63
2021/08/24 10:37:22;;;;;;;;;;;;;;;34.16;32.67;99597.72;5032578;28;869;-61
2021/08/24 10:39:49;;;;;;;;;;;;;;;33.99;32.18;99593.84;5032465;28;819;-64
2021/08/24 10:42:15;;;;;;;;;;;;;;;33.80;32.69;99592.13;5032524;28;859;-61
2021/08/24 10:44:47;;;;;;;;;;;;;;;34.23;32.86;99596.19;5032450;28;814;-62
2021/08/24 10:47:25;;;;;;;;;;;;;;;34.08;32.45;99610.50;5032572;28;818;-63
2021/08/24 10:49:54;;;;;;;;;;;;;;;33.31;33.57;99599.63;5032635;28;1885;-62
2021/08/24 10:52:20;;;;;;;;;;;;;;;33.19;33.28;99592.72;5032566;28;916;-62
2021/08/24 10:54:47;;;;;;;;;;;;;;;33.22;33.92;99593.66;5032481;28;837;-62
2021/08/24 10:57:27;;;;;;;;;;;;;;;33.18;33.62;99593.25;5032423;28;929;-62
2021/08/24 11:00:01;;;;;;;;;;;;;;;33.28;33.92;99591.41;5032209;28;870;-63
2021/08/24 11:02:46;;;;;;;;;;;;;;;33.38;34.05;99600.22;5032142;28;814;-62
2021/08/24 11:05:12;;;;;;;;;;;;;;;33.43;34.41;99596.41;5032011;28;841;-64
2021/08/24 11:07:39;;;;;;;;;;;;;;;33.33;33.80;99596.97;5030762;28;1263;-62
2021/08/24 11:10:16;;;;;;;;;;;;;;;33.14;34.93;99605.09;5032085;28;1890;-62
2021/08/24 11:12:47;;;;;;;;;;;;;;;33.24;35.02;99596.72;5032010;28;790;-62
2021/08/24 11:15:26;;;;;;;;;;;;;;;33.39;34.15;99599.63;5032118;28;980;-62
2021/08/24 11:17:56;;;;;;;;;;;;;;;33.14;34.04;99602.25;4992873;28;815;-62
2021/08/24 11:20:25;;;;;;;;;;;;;;;32.94;35.09;99590.28;4992550;28;889;-62
2021/08/24 11:22:53;;;;;;;;;;;;;;;33.06;35.68;99590.72;4992328;28;1152;-62
2021/08/24 11:25:20;;;;;;;;;;;;;;;32.95;35.70;99579.59;4992517;28;827;-62
2021/08/24 11:28:19;;;;;;;;;;;;;;;33.09;35.14;99585.97;4991261;28;1294;-64
2021/08/24 11:30:55;;;;;;;;;;;;;;;32.63;36.22;99583.63;4980537;28;1390;-62
2021/08/24 11:33:44;;;;;;;;;;;;;;;32.44;37.31;99568.81;4992380;28;815;-62
2021/08/24 11:36:16;;;;;;;;;;;;;;;32.70;36.76;99577.19;4989225;28;1657;-62
2021/08/24 11:38:45;;;;;;;;;;;;;;;32.42;36.67;99580.03;4992168;28;863;-64
2021/08/24 11:41:14;;;;;;;;;;;;;;;32.50;37.02;99580.84;4992184;28;867;-62
2021/08/24 11:44:01;;;;;;;;;;;;;;;32.58;35.93;99575.97;4992254;28;827;-61
2021/08/24 11:46:54;;;;;;;;;;;;;;;32.67;35.81;99566.13;4988317;28;1140;-63
2021/08/24 11:49:24;;;;;;;;;;;;;;;32.84;35.38;99568.47;4991114;28;1890;-63
2021/08/24 11:51:57;;;;;;;;;;;;;;;32.91;35.56;99564.91;4992381;28;851;-63
2021/08/24 11:54:39;;;;;;;;;;;;;;;32.94;35.24;99560.88;4992503;28;787;-63
2021/08/24 11:57:09;;;;;;;;;;;;;;;32.84;35.43;99563.53;4992353;28;862;-62
2021/08/24 11:59:40;;;;;;;;;;;;;;;32.74;35.72;99554.69;4992180;28;860;-62
2021/08/24 12:02:13;;;;;;;;;;;;;;;32.89;35.26;99565.44;4992136;28;819;-65
2021/08/24 12:04:41;;;;;;;;;;;;;;;33.10;35.22;99550.31;4995849;28;788;-62
2021/08/24 12:07:09;;;;;;;;;;;;;;;33.25;34.53;99555.31;4996015;28;878;-62
2021/08/24 12:09:42;;;;;;;;;;;;;;;33.13;34.01;99557.75;4995796;28;1954;-64
2021/08/24 12:12:13;;;;;;;;;;;;;;;32.85;35.50;99558.56;4996160;28;795;-63
2021/08/24 12:14:46;;;;;;;;;;;;;;;33.04;35.22;99564.75;4996005;28;989;-63
2021/08/24 12:17:15;;;;;;;;;;;;;;;33.29;34.42;99553.63;5026231;28;1246;-63
2021/08/24 12:19:59;;;;;;;;;;;;;;;33.58;33.42;99564.19;5035132;28;838;-63
2021/08/24 12:22:36;;;;;;;;;;;;;;;33.50;33.86;99564.16;5034974;28;918;-63
2021/08/24 12:25:14;;;;;;;;;;;;;;;33.58;33.72;99556.34;5035128;28;830;-62
2021/08/24 12:27:43;;;;;;;;;;;;;;;33.52;33.90;99550.03;5035002;28;848;-62
2021/08/24 12:30:15;;;;;;;;;;;;;;;33.74;33.90;99554.31;5034990;28;1914;-62
2021/08/24 12:32:42;;;;;;;;;;;;;;;33.80;33.38;99551.22;5034901;28;787;-63
2021/08/24 12:35:13;;;;;;;;;;;;;;;33.49;33.72;99546.19;5034843;28;803;-62
2021/08/24 12:37:39;;;;;;;;;;;;;;;33.58;33.87;99550.59;5035019;28;786;-63
2021/08/24 12:40:06;;;;;;;;;;;;;;;33.37;33.82;99545.03;5034826;28;909;-62
2021/08/24 12:42:34;;;;;;;;;;;;;;;33.00;33.87;99538.59;5034712;28;941;-64
2021/08/24 12:45:00;;;;;;;;;;;;;;;32.96;34.51;99544.69;5035394;28;809;-62
2021/08/24 12:47:31;;;;;;;;;;;;;;;33.19;34.48;99535.44;5034714;28;881;-64
2021/08/24 12:50:08;;;;;;;;;;;;;;;33.62;33.46;99547.41;5034562;28;1959;-62
2021/08/24 12:52:45;;;;;;;;;;;;;;;33.63;33.71;99537.47;5034647;28;900;-62
2021/08/24 12:55:33;;;;;;;;;;;;;;;33.81;33.02;99527.75;5034567;28;973;-62
2021/08/24 12:58:04;;;;;;;;;;;;;;;33.66;33.27;99530.59;5034581;28;1203;-62
2021/08/24 13:00:34;;;;;;;;;;;;;;;33.64;33.34;99527.53;5034537;28;818;-63
2021/08/24 13:03:24;;;;;;;;;;;;;;;33.62;33.16;99536.69;5034317;28;842;-63
2021/08/24 13:06:12;;;;;;;;;;;;;;;33.42;33.37;99524.06;5026570;28;1068;-62
2021/08/24 13:08:39;;;;;;;;;;;;;;;33.34;33.08;99520.41;5023215;28;1944;-62
2021/08/24 13:11:24;;;;;;;;;;;;;;;33.07;33.62;99517.06;5034279;28;861;-63
2021/08/24 13:13:53;;;;;;;;;;;;;;;33.05;33.75;99525.44;5033675;28;853;-62
2021/08/24 13:16:23;;;;;;;;;;;;;;;33.14;33.57;99513.50;5033088;28;1191;-63
2021/08/24 13:18:55;;;;;;;;;;;;;;;33.05;33.33;99525.44;5034209;28;822;-63
2021/08/24 13:21:34;;;;;;;;;;;;;;;32.78;33.91;99520.00;5034058;28;826;-62
2021/08/24 13:24:09;;;;;;;;;;;;;;;32.52;34.49;99515.28;5034030;28;857;-62
2021/08/24 13:26:57;;;;;;;;;;;;;;;32.47;34.67;99522.66;5034066;28;794;-63